createdAt,value
2017-11-18T00:00:53.976Z,39.07
2017-11-18T00:03:20.376Z,40.53
2017-11-18T00:05:47.513Z,40.70
2017-11-18T00:08:14.673Z,37.53
2017-11-18T00:10:41.167Z,41.00
2017-11-18T00:13:07.573Z,41.40
2017-11-18T00:15:34.077Z,31.53
2017-11-18T00:18:01.205Z,36.33
2017-11-18T00:20:27.588Z,37.10
2017-11-18T00:22:53.985Z,35.60
2017-11-18T00:25:21.143Z,40.37
2017-11-18T00:27:48.278Z,42.40
2017-11-18T00:30:14.690Z,39.70
2017-11-18T00:32:41.109Z,39.70
2017-11-18T00:35:07.517Z,39.80
2017-11-18T00:37:33.950Z,36.33
2017-11-18T00:40:00.411Z,38.87
2017-11-18T00:42:26.824Z,34.70
2017-11-18T00:44:53.217Z,37.00
2017-11-18T00:47:20.344Z,37.93
2017-11-18T00:49:46.742Z,32.83
2017-11-18T00:52:13.135Z,53.83
2017-11-18T00:54:39.533Z,37.00
2017-11-18T00:57:06.021Z,39.60
2017-11-18T00:59:32.428Z,41.03
2017-11-18T01:01:59.564Z,40.70
2017-11-18T01:04:25.965Z,38.97
2017-11-18T01:06:52.359Z,41.53
2017-11-18T01:09:18.747Z,36.80
2017-11-18T01:11:45.240Z,42.80
2017-11-18T01:14:11.671Z,44.50
2017-11-18T01:16:38.060Z,47.97
2017-11-18T01:19:04.465Z,37.27
2017-11-18T01:21:30.865Z,46.47
2017-11-18T01:23:57.247Z,48.57
2017-11-18T01:26:23.796Z,42.87
2017-11-18T01:28:50.946Z,46.03
2017-11-18T01:31:18.146Z,47.17
2017-11-18T01:33:45.242Z,39.20
2017-11-18T01:36:12.411Z,41.93
2017-11-18T01:38:38.831Z,49.70
2017-11-18T01:41:06.010Z,40.10
2017-11-18T01:43:32.425Z,46.03
2017-11-18T01:45:59.589Z,49.23
2017-11-18T01:48:25.998Z,45.77
2017-11-18T01:50:53.175Z,45.10
2017-11-18T01:53:19.571Z,51.10
2017-11-18T01:55:46.729Z,50.20
2017-11-18T01:58:13.881Z,41.90
2017-11-18T02:00:41.025Z,53.10
2017-11-18T02:03:07.486Z,49.17
2017-11-18T02:05:33.903Z,49.80
2017-11-18T02:08:01.073Z,48.10
2017-11-18T02:10:27.503Z,51.10
2017-11-18T02:12:54.092Z,56.27
2017-11-18T02:15:21.329Z,51.67
2017-11-18T02:17:47.769Z,55.80
2017-11-18T02:20:14.198Z,48.70
2017-11-18T02:22:40.655Z,56.10
2017-11-18T02:25:07.844Z,49.53
2017-11-18T02:27:34.280Z,57.13
2017-11-18T02:30:00.715Z,52.23
2017-11-18T02:32:27.268Z,49.27
2017-11-18T02:34:53.711Z,62.57
2017-11-18T02:37:20.174Z,54.33
2017-11-18T02:39:46.629Z,53.23
2017-11-18T02:42:13.826Z,50.90
2017-11-18T02:44:40.262Z,55.47
2017-11-18T02:47:06.757Z,55.50
2017-11-18T02:49:33.221Z,53.57
2017-11-18T02:51:59.690Z,57.30
2017-11-18T02:54:26.159Z,53.77
2017-11-18T02:56:52.581Z,51.07
2017-11-18T02:59:19.032Z,51.90
2017-11-18T03:01:45.436Z,52.03
2017-11-18T03:04:12.588Z,55.77
2017-11-18T03:06:39.733Z,52.33
2017-11-18T03:09:06.958Z,52.80
2017-11-18T03:11:33.370Z,49.00
2017-11-18T03:13:59.852Z,50.23
2017-11-18T03:16:27.049Z,47.60
2017-11-18T03:18:53.502Z,54.30
2017-11-18T03:21:19.929Z,55.90
2017-11-18T03:23:46.358Z,52.40
2017-11-18T03:26:12.773Z,57.17
2017-11-18T03:28:39.203Z,57.23
2017-11-18T03:31:05.630Z,52.13
2017-11-18T03:33:32.161Z,55.33
2017-11-18T03:35:58.604Z,64.83
2017-11-18T03:38:24.994Z,66.47
2017-11-18T03:40:51.421Z,56.20
2017-11-18T03:43:17.845Z,51.90
2017-11-18T03:45:44.298Z,72.73
2017-11-18T03:48:11.472Z,57.33
2017-11-18T03:50:37.902Z,61.50
2017-11-18T03:53:04.304Z,53.63
2017-11-18T03:55:31.449Z,60.60
2017-11-18T03:57:57.881Z,59.53
2017-11-18T04:00:24.322Z,49.47
2017-11-18T04:02:50.740Z,66.30
2017-11-18T04:05:17.182Z,54.43
2017-11-18T04:07:43.605Z,58.30
2017-11-18T04:10:10.046Z,58.97
2017-11-18T04:12:36.462Z,51.70
2017-11-18T04:15:02.893Z,50.63
2017-11-18T04:17:29.444Z,57.23
2017-11-18T04:19:55.949Z,59.37
2017-11-18T04:22:22.338Z,53.90
2017-11-18T04:24:49.497Z,79.90
2017-11-18T04:27:15.964Z,67.97
2017-11-18T04:29:42.374Z,62.80
2017-11-18T04:32:08.833Z,55.80
2017-11-18T04:34:35.273Z,58.93
2017-11-18T04:37:01.723Z,55.80
2017-11-18T04:39:28.199Z,68.90
2017-11-18T04:41:54.637Z,72.60
2017-11-18T04:44:21.069Z,63.23
2017-11-18T04:46:47.466Z,64.53
2017-11-18T04:49:13.895Z,64.10
2017-11-18T04:51:40.334Z,56.03
2017-11-18T06:57:41.962Z,117.70
2017-11-18T07:00:13.558Z,101.60
2017-11-18T07:02:45.043Z,97.63
2017-11-18T07:05:16.566Z,110.20
2017-11-18T07:07:48.049Z,95.67
2017-11-18T07:10:14.524Z,93.53
2017-11-18T07:12:40.908Z,77.83
2017-11-18T07:15:07.346Z,97.53
2017-11-18T07:17:33.765Z,85.07
2017-11-18T07:26:19.797Z,77.20
2017-11-18T07:28:46.929Z,83.80
2017-11-18T07:31:14.088Z,75.03
2017-11-18T07:33:41.221Z,81.47
2017-11-18T07:36:08.383Z,86.47
2017-11-18T07:38:35.520Z,74.37
2017-11-18T07:41:01.908Z,69.20
2017-11-18T07:43:28.351Z,76.00
2017-11-18T07:45:54.774Z,63.23
2017-11-18T07:48:21.193Z,69.03
2017-11-18T07:50:47.611Z,67.73
2017-11-18T07:53:14.009Z,72.47
2017-11-18T07:55:40.406Z,69.50
2017-11-18T07:58:06.806Z,67.93
2017-11-18T08:00:33.210Z,61.30
2017-11-18T08:02:59.714Z,70.80
2017-11-18T08:05:26.115Z,75.73
2017-11-18T08:07:52.513Z,64.13
2017-11-18T08:10:19.706Z,67.20
2017-11-18T08:12:46.123Z,66.40
2017-11-18T08:15:12.546Z,61.90
2017-11-18T08:17:39.696Z,77.70
2017-11-18T08:20:06.506Z,71.23
2017-11-18T08:22:33.668Z,66.70
2017-11-18T08:25:01.627Z,78.60
2017-11-18T08:27:28.022Z,70.50
2017-11-18T08:29:54.432Z,105.27
2017-11-18T08:32:20.882Z,83.60
2017-11-18T08:34:47.301Z,70.87
2017-11-18T08:37:13.884Z,78.20
2017-11-18T08:39:40.303Z,70.97
2017-11-18T08:42:06.701Z,60.97
2017-11-18T08:44:33.103Z,68.97
2017-11-18T08:46:59.517Z,60.33
2017-11-18T08:49:25.929Z,63.40
2017-11-18T08:51:52.332Z,65.17
2017-11-18T08:54:18.733Z,81.83
2017-11-18T08:56:45.918Z,65.23
2017-11-18T08:59:18.490Z,64.00
2017-11-18T09:01:44.954Z,59.37
2017-11-18T09:04:11.663Z,62.70
2017-11-18T09:06:38.205Z,67.60
2017-11-18T09:09:04.601Z,59.60
2017-11-18T09:11:32.478Z,59.57
2017-11-18T09:13:59.762Z,82.93
2017-11-18T09:16:26.144Z,63.37
2017-11-18T09:18:52.653Z,67.43
2017-11-18T09:21:19.150Z,61.60
2017-11-18T09:23:45.536Z,59.83
2017-11-18T09:26:11.934Z,65.10
2017-11-18T09:28:38.359Z,58.80
2017-11-18T09:31:04.783Z,57.30
2017-11-18T09:33:31.190Z,69.33
2017-11-18T09:35:57.584Z,64.03
2017-11-18T09:38:23.994Z,57.33
2017-11-18T09:40:51.148Z,54.43
2017-11-18T09:43:17.556Z,58.80
2017-11-18T09:45:44.689Z,63.80
2017-11-18T09:48:11.817Z,56.00
2017-11-18T09:50:38.225Z,51.17
2017-11-18T09:53:04.625Z,56.57
2017-11-18T09:55:31.026Z,58.13
2017-11-18T09:57:58.189Z,61.63
2017-11-18T10:00:25.357Z,50.80
2017-11-18T10:02:51.746Z,52.23
2017-11-18T10:05:18.205Z,54.80
2017-11-18T10:07:45.381Z,50.17
2017-11-18T10:10:11.865Z,46.10
2017-11-18T10:12:39.797Z,35.10
2017-11-18T10:15:06.202Z,34.87
2017-11-18T10:17:32.648Z,32.63
2017-11-18T10:19:59.124Z,28.47
2017-11-18T10:22:25.554Z,29.23
2017-11-18T10:24:53.600Z,29.67
2017-11-18T10:27:20.014Z,32.67
2017-11-18T10:29:46.511Z,43.43
2017-11-18T10:32:13.652Z,78.73
2017-11-18T10:34:41.567Z,74.67
2017-11-18T10:37:07.997Z,47.30
2017-11-18T10:39:34.414Z,40.70
2017-11-18T10:42:00.839Z,37.77
2017-11-18T10:44:27.305Z,39.57
2017-11-18T10:46:53.734Z,40.40
2017-11-18T10:49:20.210Z,40.20
2017-11-18T10:51:48.180Z,30.73
2017-11-18T10:54:14.633Z,28.93
2017-11-18T10:56:41.829Z,24.90
2017-11-18T10:59:08.247Z,24.70
2017-11-18T11:01:34.743Z,22.67
2017-11-18T11:04:01.982Z,22.67
2017-11-18T11:06:29.960Z,27.03
2017-11-18T11:08:57.197Z,19.87
2017-11-18T11:11:23.669Z,22.60
2017-11-18T11:13:50.850Z,28.07
2017-11-18T11:16:17.333Z,23.43
2017-11-18T11:18:45.394Z,20.70
2017-11-18T11:21:11.838Z,21.93
2017-11-18T11:23:39.742Z,23.93
2017-11-18T11:26:19.383Z,24.97
2017-11-18T11:28:59.272Z,18.43
2017-11-18T11:31:38.998Z,24.00
2017-11-18T11:34:05.451Z,22.63
2017-11-18T11:36:31.875Z,17.33
2017-11-18T11:38:58.289Z,18.50
2017-11-18T11:41:24.677Z,18.60
2017-11-18T11:43:51.114Z,16.80
2017-11-18T11:46:18.327Z,18.80
2017-11-18T11:48:44.793Z,16.83
2017-11-18T11:51:11.207Z,17.77
2017-11-18T11:53:39.148Z,16.60
2017-11-18T11:56:05.592Z,20.93
2017-11-18T11:58:32.007Z,19.20
2017-11-18T12:00:58.427Z,15.70
2017-11-18T12:03:24.892Z,24.17
2017-11-18T12:05:51.345Z,22.10
2017-11-18T12:08:17.842Z,17.83
2017-11-18T12:10:44.318Z,17.53
2017-11-18T12:13:10.873Z,19.77
2017-11-18T12:15:38.104Z,15.37
2017-11-18T12:18:04.632Z,18.07
2017-11-18T12:20:31.121Z,19.83
2017-11-18T12:22:57.673Z,21.30
2017-11-18T12:25:24.150Z,17.70
2017-11-18T12:27:51.375Z,20.13
2017-11-18T12:30:17.835Z,18.97
2017-11-18T12:32:44.282Z,18.43
2017-11-18T12:35:11.557Z,19.80
2017-11-18T12:37:38.859Z,25.80
2017-11-18T12:40:05.323Z,20.27
2017-11-18T12:42:31.762Z,21.07
2017-11-18T12:44:58.967Z,18.97
2017-11-18T12:47:25.408Z,21.03
2017-11-18T12:49:51.898Z,19.13
2017-11-18T12:52:18.281Z,24.30
2017-11-18T12:54:44.795Z,25.37
2017-11-18T12:57:11.205Z,19.27
2017-11-18T12:59:37.621Z,22.00
2017-11-18T13:02:04.073Z,24.00
2017-11-18T13:04:30.537Z,24.43
2017-11-18T13:06:56.961Z,22.23
2017-11-18T13:09:23.360Z,22.47
2017-11-18T13:11:49.756Z,20.93
2017-11-18T13:14:17.657Z,30.50
2017-11-18T13:16:44.064Z,22.03
2017-11-18T13:19:11.254Z,23.70
2017-11-18T13:21:38.648Z,24.73
2017-11-18T13:24:05.316Z,21.57
2017-11-18T13:26:31.781Z,21.90
2017-11-18T13:28:58.194Z,17.77
2017-11-18T13:31:24.656Z,18.17
2017-11-18T13:33:51.127Z,21.10
2017-11-18T13:36:19.072Z,22.07
2017-11-18T13:38:45.475Z,23.80
2017-11-18T13:41:11.914Z,18.30
2017-11-18T13:43:38.375Z,23.03
2017-11-18T13:46:04.777Z,27.30
2017-11-18T13:48:31.180Z,21.63
2017-11-18T13:50:58.310Z,23.93
2017-11-18T13:53:24.900Z,25.83
2017-11-18T13:55:51.305Z,24.40
2017-11-18T13:58:17.709Z,28.87
2017-11-18T14:00:45.607Z,28.03
2017-11-18T14:03:12.761Z,27.00
2017-11-18T14:05:39.967Z,31.20
2017-11-18T14:08:07.927Z,27.83
2017-11-18T14:10:34.382Z,29.40
2017-11-18T14:13:01.573Z,27.47
2017-11-18T14:15:27.980Z,22.00
2017-11-18T14:17:54.483Z,24.87
2017-11-18T14:20:20.897Z,24.90
2017-11-18T14:22:47.300Z,24.77
2017-11-18T14:25:13.734Z,25.60
2017-11-18T14:27:40.161Z,26.80
2017-11-18T14:30:07.479Z,25.17
2017-11-18T14:32:33.880Z,28.57
2017-11-18T14:35:00.292Z,24.57
2017-11-18T14:37:26.725Z,27.83
2017-11-18T14:39:53.161Z,25.27
2017-11-18T14:42:19.836Z,25.20
2017-11-18T14:44:46.249Z,23.57
2017-11-18T14:47:14.774Z,27.77
2017-11-18T14:49:41.201Z,24.53
2017-11-18T14:52:08.360Z,19.90
2017-11-18T14:54:35.542Z,19.73
2017-11-18T14:57:02.098Z,24.17
2017-11-18T14:59:28.550Z,19.07
2017-11-18T15:01:55.040Z,21.50
2017-11-18T15:04:21.551Z,19.50
2017-11-18T15:06:48.758Z,20.07
2017-11-18T15:09:15.259Z,21.90
2017-11-18T15:11:41.748Z,20.47
2017-11-18T15:14:09.244Z,18.73
2017-11-18T15:16:42.581Z,17.80
2017-11-18T15:19:24.906Z,18.17
2017-11-18T15:21:52.941Z,18.93
2017-11-18T15:24:25.476Z,25.53
2017-11-18T15:27:07.601Z,21.37
2017-11-18T15:29:35.141Z,23.07
2017-11-18T15:32:09.257Z,20.70
2017-11-18T15:34:42.404Z,19.33
2017-11-18T15:37:14.916Z,23.07
2017-11-18T15:39:42.205Z,24.33
2017-11-18T15:42:08.688Z,27.43
2017-11-18T15:44:37.616Z,23.70
2017-11-18T15:47:19.886Z,22.17
2017-11-18T15:49:53.114Z,20.43
2017-11-18T15:52:22.369Z,26.47
2017-11-18T15:55:08.568Z,22.17
2017-11-18T15:57:39.074Z,25.30
2017-11-18T16:00:05.574Z,22.80
2017-11-18T16:05:37.295Z,23.63
2017-11-18T16:08:14.558Z,24.13
2017-11-18T16:10:40.999Z,22.90
2017-11-18T16:13:07.453Z,21.70
2017-11-18T16:15:33.930Z,21.37
2017-11-18T16:18:00.397Z,20.17
2017-11-18T16:20:26.848Z,22.67
2017-11-18T16:22:53.266Z,19.60
2017-11-18T16:25:19.696Z,23.53
2017-11-18T16:27:46.149Z,24.30
2017-11-18T16:30:12.616Z,23.17
2017-11-18T16:32:39.805Z,21.43
2017-11-18T16:35:06.250Z,19.00
2017-11-18T16:37:32.712Z,21.27
2017-11-18T16:39:59.145Z,22.53
2017-11-18T16:42:25.579Z,22.60
2017-11-18T16:44:52.016Z,23.70
2017-11-18T16:47:18.513Z,22.93
2017-11-18T16:49:44.962Z,22.93
2017-11-18T16:52:11.408Z,22.33
2017-11-18T16:54:37.878Z,22.90
2017-11-18T16:57:04.351Z,24.30
2017-11-18T16:59:30.822Z,21.63
2017-11-18T17:01:58.028Z,20.67
2017-11-18T17:04:24.535Z,19.27
2017-11-18T17:06:50.969Z,21.67
2017-11-18T17:09:17.557Z,24.83
2017-11-18T17:11:44.024Z,23.00
2017-11-18T17:14:11.226Z,21.50
2017-11-18T17:16:37.774Z,26.50
2017-11-18T17:19:04.243Z,23.03
2017-11-18T17:21:31.433Z,27.63
2017-11-18T17:23:57.942Z,25.00
2017-11-18T17:26:24.358Z,26.87
2017-11-18T17:28:51.556Z,24.93
2017-11-18T17:31:18.003Z,28.03
2017-11-18T17:33:44.440Z,27.43
2017-11-18T17:36:10.889Z,29.47
2017-11-18T17:38:38.103Z,31.03
2017-11-18T17:41:04.562Z,26.70
2017-11-18T17:43:31.017Z,26.57
2017-11-18T17:45:58.227Z,26.53
2017-11-18T17:48:24.682Z,25.13
2017-11-18T17:50:51.137Z,26.20
2017-11-18T17:53:18.345Z,33.33
2017-11-18T17:55:44.895Z,27.17
2017-11-18T17:58:11.418Z,25.90
2017-11-18T18:00:37.847Z,27.63
2017-11-18T18:03:04.317Z,28.67
2017-11-18T18:05:30.748Z,28.23
2017-11-18T18:07:57.213Z,26.83
2017-11-18T18:10:23.979Z,32.70
2017-11-18T18:12:50.502Z,29.43
2017-11-18T18:15:16.944Z,26.23
2017-11-18T18:17:43.500Z,55.20
2017-11-18T18:20:09.959Z,34.83
2017-11-18T18:22:36.561Z,27.37
2017-11-18T18:25:03.011Z,34.13
2017-11-18T18:27:29.454Z,29.43
2017-11-18T18:29:55.861Z,37.03
2017-11-18T18:32:23.884Z,40.60
2017-11-18T18:34:51.087Z,36.40
2017-11-18T18:37:17.533Z,32.43
2017-11-18T18:39:44.719Z,27.67
2017-11-18T18:42:11.868Z,28.67
2017-11-18T18:44:39.065Z,44.60
2017-11-18T18:47:05.505Z,30.37
2017-11-18T18:49:31.937Z,26.60
2017-11-18T18:51:58.386Z,31.80
2017-11-18T18:54:24.852Z,26.93
2017-11-18T18:56:52.027Z,26.57
2017-11-18T18:59:18.510Z,25.43
2017-11-18T19:01:45.692Z,26.30
2017-11-18T19:04:12.199Z,27.77
2017-11-18T19:06:38.792Z,27.07
2017-11-18T19:09:05.247Z,30.83
2017-11-18T19:11:32.191Z,26.77
2017-11-18T19:13:58.635Z,27.90
2017-11-18T19:16:25.652Z,32.17
2017-11-18T19:18:52.203Z,27.60
2017-11-18T19:21:18.669Z,26.23
2017-11-18T19:23:45.819Z,23.60
2017-11-18T19:26:13.750Z,26.80
2017-11-18T19:28:40.194Z,25.43
2017-11-18T19:31:06.626Z,22.23
2017-11-18T19:33:33.063Z,30.30
2017-11-18T19:35:59.490Z,24.50
2017-11-18T19:38:25.942Z,23.90
2017-11-18T19:40:52.443Z,22.50
2017-11-18T19:43:18.880Z,22.67
2017-11-18T19:45:45.333Z,22.67
2017-11-18T19:48:11.827Z,22.50
2017-11-18T19:50:38.265Z,24.00
2017-11-18T19:53:04.735Z,23.23
2017-11-18T19:55:31.209Z,23.37
2017-11-18T19:57:57.627Z,22.50
2017-11-18T20:00:24.807Z,19.20
2017-11-18T20:02:51.237Z,19.70
2017-11-18T20:05:17.706Z,22.33
2017-11-18T20:07:44.172Z,20.50
2017-11-18T20:10:11.443Z,18.50
2017-11-18T20:12:37.889Z,19.23
2017-11-18T20:15:04.361Z,19.63
2017-11-18T20:17:30.839Z,18.70
2017-11-18T20:19:58.189Z,20.30
2017-11-18T20:22:25.389Z,18.30
2017-11-18T20:24:53.115Z,21.63
2017-11-18T20:27:20.325Z,19.10
2017-11-18T20:29:46.763Z,18.37
2017-11-18T20:32:14.127Z,20.47
2017-11-18T20:34:41.284Z,22.63
2017-11-18T20:37:08.468Z,15.20
2017-11-18T20:39:34.891Z,18.80
2017-11-18T20:42:02.051Z,17.40
2017-11-18T20:44:28.513Z,15.70
2017-11-18T20:46:56.109Z,18.50
2017-11-18T20:49:23.249Z,15.30
2017-11-18T20:51:50.528Z,16.10
2017-11-18T20:54:17.679Z,19.33
2017-11-18T20:56:44.809Z,19.33
2017-11-18T20:59:11.953Z,21.50
2017-11-18T21:01:38.372Z,16.20
2017-11-18T21:04:04.789Z,17.87
2017-11-18T21:06:31.212Z,18.67
2017-11-18T21:08:57.594Z,18.97
2017-11-18T21:11:23.977Z,19.03
2017-11-18T21:13:51.186Z,19.13
2017-11-18T21:16:18.321Z,17.73
2017-11-18T21:18:45.451Z,20.23
2017-11-18T21:21:11.856Z,20.27
2017-11-18T21:23:38.269Z,18.07
2017-11-18T21:26:05.474Z,20.50
2017-11-18T21:28:32.607Z,18.17
2017-11-18T21:30:59.037Z,18.70
2017-11-18T21:33:25.459Z,21.80
2017-11-18T21:35:51.875Z,18.60
2017-11-18T21:38:18.284Z,19.30
2017-11-18T21:40:45.449Z,17.57
2017-11-18T21:43:11.849Z,16.17
2017-11-18T21:45:39.020Z,17.57
2017-11-18T21:48:05.421Z,16.27
2017-11-18T21:50:32.649Z,16.40
2017-11-18T21:52:59.064Z,17.63
2017-11-18T21:55:25.458Z,19.63
2017-11-18T21:57:52.599Z,17.37
2017-11-18T22:00:18.996Z,17.90
2017-11-18T22:02:45.399Z,17.30
2017-11-18T22:05:11.801Z,18.50
2017-11-18T22:07:38.968Z,14.07
2017-11-18T22:10:05.389Z,15.60
2017-11-18T22:12:32.537Z,20.60
2017-11-18T22:14:59.698Z,19.20
2017-11-18T22:17:26.828Z,19.33
2017-11-18T22:19:54.038Z,16.00
2017-11-18T22:22:20.464Z,20.00
2017-11-18T22:24:46.884Z,17.03
2017-11-18T22:27:13.445Z,21.20
2017-11-18T22:29:39.860Z,18.27
2017-11-18T22:32:06.281Z,20.10
2017-11-18T22:34:33.306Z,15.17
2017-11-18T22:37:00.445Z,16.50
2017-11-18T22:39:27.625Z,15.20
2017-11-18T22:41:54.037Z,16.67
2017-11-18T22:44:21.169Z,19.37
2017-11-18T22:46:48.304Z,19.10
2017-11-18T22:49:14.702Z,19.03
2017-11-18T22:51:41.118Z,18.97
2017-11-18T22:54:07.612Z,20.37
2017-11-18T22:56:34.006Z,19.90
2017-11-18T22:59:00.396Z,15.10
2017-11-18T23:01:27.532Z,19.03
2017-11-18T23:03:54.730Z,18.07
2017-11-18T23:06:21.133Z,20.13
2017-11-18T23:08:48.261Z,16.30
2017-11-18T23:11:15.397Z,15.60
2017-11-18T23:13:41.819Z,15.97
2017-11-18T23:16:08.233Z,15.80
2017-11-18T23:18:34.638Z,19.57
2017-11-18T23:21:01.049Z,22.70
2017-11-18T23:23:28.224Z,14.37
2017-11-18T23:25:54.668Z,15.17
2017-11-18T23:28:21.126Z,12.17
2017-11-18T23:30:47.560Z,13.83
2017-11-18T23:33:13.979Z,12.30
2017-11-18T23:35:40.396Z,13.53
2017-11-18T23:38:06.813Z,13.07
2017-11-18T23:40:33.216Z,18.43
2017-11-18T23:43:00.365Z,15.80
2017-11-18T23:45:27.569Z,16.13
2017-11-18T23:47:53.978Z,14.47
2017-11-18T23:50:20.580Z,15.13
2017-11-18T23:52:47.020Z,11.17
2017-11-18T23:55:14.167Z,9.67
2017-11-18T23:57:40.586Z,13.43
